Terminal Aerodrome Forecast
Issued by NWS

Home | Current Version | Previous Version | Text Only | Print | Product List | Glossary On
Versions: 1 2 3 4 5 6 7 8 9 10 11 12 13 14 15 16 17 18
000
FTUS46 KPDT 261700
TAFBDN
TAF
KBDN 261722Z 2618/2718 20012KT P6SM BKN200
     FM270200 20012KT P6SM BKN150
     FM270800 20014KT P6SM BKN100=

USA.gov is the U.S. government's official web portal to all federal, state and local government web resources and services.